createdAt,value
2018-03-25T00:01:49.449Z,70.80
2018-03-25T00:04:17.357Z,71.50
2018-03-25T00:06:46.125Z,73.00
2018-03-25T00:09:14.043Z,72.00
2018-03-25T00:11:42.053Z,72.10
2018-03-25T00:14:09.965Z,72.70
2018-03-25T00:16:37.822Z,72.60
2018-03-25T00:19:06.509Z,73.60
2018-03-25T00:21:35.195Z,73.20
2018-03-25T00:24:03.137Z,73.20
2018-03-25T00:26:31.172Z,73.20
2018-03-25T00:28:59.074Z,73.10
2018-03-25T00:31:27.005Z,72.90
2018-03-25T00:33:55.048Z,72.50
2018-03-25T00:36:22.884Z,72.40
2018-03-25T00:38:50.872Z,72.30
2018-03-25T00:41:19.670Z,71.00
2018-03-25T00:43:48.377Z,70.30
2018-03-25T00:46:16.340Z,70.30
2018-03-25T00:48:44.266Z,70.20
2018-03-25T00:51:12.129Z,70.50
2018-03-25T00:53:40.046Z,71.30
2018-03-25T00:56:08.065Z,71.50
2018-03-25T00:58:36.853Z,74.40
2018-03-25T01:01:04.723Z,74.50
2018-03-25T01:03:32.698Z,74.00
2018-03-25T01:06:00.659Z,74.40
2018-03-25T01:08:28.482Z,75.60
2018-03-25T01:10:56.477Z,74.90
2018-03-25T01:13:24.374Z,76.00
2018-03-25T01:16:04.101Z,75.50
2018-03-25T01:18:32.040Z,76.00
2018-03-25T01:20:59.902Z,74.80
2018-03-25T01:23:27.856Z,74.50
2018-03-25T01:25:56.484Z,76.70
2018-03-25T01:28:24.368Z,76.70
2018-03-25T01:30:52.408Z,77.60
2018-03-25T01:33:20.334Z,78.20
2018-03-25T01:35:48.953Z,79.30
2018-03-25T01:38:16.906Z,79.30
2018-03-25T01:40:45.540Z,79.50
2018-03-25T01:43:13.429Z,79.50
2018-03-25T01:45:41.342Z,79.80
2018-03-25T01:48:09.210Z,80.30
2018-03-25T01:50:37.173Z,80.10
2018-03-25T01:53:05.084Z,81.20
2018-03-25T01:55:33.020Z,81.10
2018-03-25T01:58:00.945Z,80.90
2018-03-25T02:00:28.855Z,80.70
2018-03-25T02:02:56.748Z,80.80
2018-03-25T02:05:25.384Z,81.40
2018-03-25T02:07:54.222Z,81.70
2018-03-25T02:10:22.053Z,81.60
2018-03-25T02:12:49.937Z,81.80
2018-03-25T02:15:17.910Z,82.30
2018-03-25T02:17:45.898Z,82.60
2018-03-25T02:20:13.706Z,82.60
2018-03-25T02:22:42.473Z,82.20
2018-03-25T02:25:10.406Z,82.20
2018-03-25T02:27:38.280Z,82.00
2018-03-25T02:30:06.202Z,81.80
2018-03-25T02:32:34.861Z,81.70
2018-03-25T02:35:02.730Z,81.50
2018-03-25T02:37:30.651Z,81.80
2018-03-25T02:39:58.532Z,81.40
2018-03-25T02:42:26.380Z,81.30
2018-03-25T02:44:54.291Z,81.20
2018-03-25T02:47:22.246Z,81.50
2018-03-25T02:49:50.165Z,81.90
2018-03-25T02:52:18.822Z,82.00
2018-03-25T02:54:46.772Z,82.00
2018-03-25T02:57:14.729Z,81.70
2018-03-25T02:59:42.667Z,82.00
2018-03-25T03:02:10.504Z,82.60
2018-03-25T03:04:39.206Z,83.60
2018-03-25T03:07:07.928Z,83.30
2018-03-25T03:09:35.739Z,83.30
2018-03-25T03:12:03.621Z,84.20
2018-03-25T03:14:31.577Z,84.30
2018-03-25T03:16:59.497Z,83.60
2018-03-25T03:19:27.633Z,83.70
2018-03-25T03:21:56.412Z,83.40
2018-03-25T03:24:25.083Z,83.20
2018-03-25T03:26:52.972Z,83.20
2018-03-25T03:29:21.589Z,84.30
2018-03-25T03:31:49.485Z,84.30
2018-03-25T03:34:17.370Z,85.00
2018-03-25T03:36:45.283Z,84.60
2018-03-25T03:39:13.183Z,84.50
2018-03-25T03:41:41.090Z,84.50
2018-03-25T03:44:09.787Z,85.00
2018-03-25T03:46:38.397Z,84.70
2018-03-25T03:49:06.284Z,84.70
2018-03-25T03:51:34.309Z,84.80
2018-03-25T03:54:02.858Z,84.30
2018-03-25T03:56:30.724Z,84.30
2018-03-25T03:58:58.613Z,84.60
2018-03-25T04:01:27.281Z,86.80
2018-03-25T04:03:55.141Z,86.50
2018-03-25T04:06:23.065Z,87.10
2018-03-25T04:08:51.024Z,87.60
2018-03-25T04:11:18.861Z,88.70
2018-03-25T04:13:46.806Z,89.50
2018-03-25T04:16:14.706Z,89.50
2018-03-25T04:18:43.341Z,90.00
2018-03-25T04:21:11.337Z,90.00
2018-03-25T04:23:39.196Z,90.30
2018-03-25T04:26:07.037Z,90.40
2018-03-25T04:28:34.959Z,90.50
2018-03-25T04:31:03.700Z,90.90
2018-03-25T04:33:31.647Z,90.50
2018-03-25T04:35:59.588Z,90.50
2018-03-25T04:38:28.194Z,90.50
2018-03-25T04:40:56.113Z,90.50
2018-03-25T04:43:24.121Z,90.50
2018-03-25T04:45:52.825Z,90.90
2018-03-25T04:48:20.716Z,90.80
2018-03-25T04:50:48.739Z,90.90
2018-03-25T04:53:16.605Z,91.00
2018-03-25T04:55:45.349Z,91.50
2018-03-25T04:58:13.284Z,91.40
2018-03-25T05:00:41.138Z,91.60
2018-03-25T05:03:09.721Z,91.60
2018-03-25T05:05:38.441Z,91.90
2018-03-25T05:08:06.306Z,91.90
2018-03-25T05:10:34.403Z,91.70
2018-03-25T05:13:02.385Z,91.80
2018-03-25T05:15:30.333Z,91.80
2018-03-25T05:17:58.437Z,92.00
2018-03-25T05:20:27.224Z,92.00
2018-03-25T05:22:55.114Z,92.00
2018-03-25T05:25:23.803Z,92.30
2018-03-25T05:27:52.540Z,92.40
2018-03-25T05:30:20.385Z,92.40
2018-03-25T05:32:48.180Z,92.40
2018-03-25T05:35:16.081Z,92.60
2018-03-25T05:37:44.741Z,92.50
2018-03-25T05:40:12.588Z,92.50
2018-03-25T05:42:40.533Z,92.50
2018-03-25T05:45:08.378Z,92.40
2018-03-25T05:47:37.000Z,92.50
2018-03-25T05:50:04.924Z,92.40
2018-03-25T05:52:33.563Z,93.10
2018-03-25T05:55:01.620Z,93.10
2018-03-25T05:57:29.667Z,93.10
2018-03-25T05:59:57.653Z,93.60
2018-03-25T06:02:25.589Z,93.90
2018-03-25T06:04:53.564Z,94.10
2018-03-25T06:07:22.177Z,94.30
2018-03-25T06:09:50.241Z,94.30
2018-03-25T06:12:18.138Z,94.10
2018-03-25T06:14:46.053Z,94.80
2018-03-25T06:17:14.849Z,95.80
2018-03-25T06:19:42.833Z,95.70
2018-03-25T06:22:10.700Z,96.00
2018-03-25T06:24:38.612Z,96.20
2018-03-25T06:27:06.585Z,96.10
2018-03-25T06:29:34.398Z,95.60
2018-03-25T06:32:02.426Z,96.00
2018-03-25T06:34:30.414Z,95.20
2018-03-25T06:36:59.045Z,94.60
2018-03-25T06:39:26.847Z,94.60
2018-03-25T06:41:54.836Z,94.30
2018-03-25T06:44:22.689Z,94.40
2018-03-25T06:46:50.620Z,94.20
2018-03-25T06:52:43.964Z,94.30
2018-03-25T06:55:11.864Z,94.30
2018-03-25T06:57:39.852Z,93.80
2018-03-25T07:00:07.709Z,93.20
2018-03-25T07:02:35.585Z,92.60
2018-03-25T07:05:03.526Z,92.40
2018-03-25T07:07:31.500Z,91.90
2018-03-25T07:09:59.475Z,91.90
2018-03-25T07:12:27.286Z,90.70
2018-03-25T07:14:55.945Z,90.10
2018-03-25T07:17:23.879Z,90.10
2018-03-25T07:19:51.803Z,89.10
2018-03-25T07:22:19.764Z,88.80
2018-03-25T07:24:47.770Z,87.80
2018-03-25T07:27:15.614Z,86.50
2018-03-25T07:29:43.634Z,85.70
2018-03-25T07:32:11.490Z,85.80
2018-03-25T07:34:39.434Z,85.30
2018-03-25T07:37:08.213Z,82.80
2018-03-25T07:39:36.131Z,82.70
2018-03-25T07:42:04.042Z,83.20
2018-03-25T07:44:31.924Z,81.30
2018-03-25T07:46:59.889Z,81.20
2018-03-25T07:49:28.559Z,80.50
2018-03-25T07:51:56.698Z,80.40
2018-03-25T07:54:24.634Z,80.10
2018-03-25T07:56:52.657Z,79.70
2018-03-25T07:59:20.616Z,79.40
2018-03-25T08:01:48.687Z,78.30
2018-03-25T08:04:16.518Z,78.10
2018-03-25T08:06:44.569Z,77.50
2018-03-25T08:09:13.367Z,77.40
2018-03-25T08:11:41.326Z,77.40
2018-03-25T08:14:10.086Z,76.30
2018-03-25T08:16:37.882Z,76.20
2018-03-25T08:19:06.495Z,76.20
2018-03-25T08:21:34.470Z,76.20
2018-03-25T08:24:02.545Z,76.20
2018-03-25T08:26:30.416Z,75.20
2018-03-25T08:28:58.474Z,74.00
2018-03-25T08:31:26.349Z,73.30
2018-03-25T08:33:54.316Z,72.90
2018-03-25T08:36:22.333Z,72.80
2018-03-25T08:38:51.072Z,72.00
2018-03-25T08:41:18.977Z,71.80
2018-03-25T08:43:47.117Z,70.30
2018-03-25T08:46:15.114Z,71.10
2018-03-25T08:48:43.057Z,70.00
2018-03-25T08:51:11.002Z,68.60
2018-03-25T08:53:38.874Z,67.50
2018-03-25T08:56:07.043Z,67.90
2018-03-25T08:58:34.928Z,66.10
2018-03-25T09:01:02.846Z,67.70
2018-03-25T09:03:31.538Z,66.30
2018-03-25T09:06:00.461Z,64.90
2018-03-25T09:08:28.372Z,64.60
2018-03-25T09:10:56.291Z,64.00
2018-03-25T09:13:24.266Z,63.70
2018-03-25T09:15:52.231Z,63.10
2018-03-25T09:18:20.187Z,64.60
2018-03-25T09:20:48.177Z,63.80
2018-03-25T09:23:16.106Z,62.10
2018-03-25T09:25:43.955Z,61.40
2018-03-25T09:28:11.918Z,60.30
2018-03-25T09:30:39.905Z,60.80
2018-03-25T09:33:07.740Z,60.00
2018-03-25T09:35:35.761Z,60.20
2018-03-25T09:38:03.692Z,59.90
2018-03-25T09:40:31.582Z,59.90
2018-03-25T09:42:59.587Z,59.70
2018-03-25T09:45:28.305Z,59.70
2018-03-25T09:47:56.110Z,59.70
2018-03-25T09:50:24.810Z,59.70
2018-03-25T09:52:52.659Z,59.70
2018-03-25T09:55:21.259Z,64.90
2018-03-25T09:57:49.178Z,64.90
2018-03-25T10:03:23.629Z,59.50
2018-03-25T10:05:51.638Z,59.80
2018-03-25T10:08:20.240Z,60.70
2018-03-25T10:10:48.179Z,60.60
2018-03-25T10:13:16.908Z,58.30
2018-03-25T10:15:44.745Z,58.20
2018-03-25T10:18:13.470Z,57.30
2018-03-25T10:20:41.385Z,57.20
2018-03-25T10:23:09.300Z,58.00
2018-03-25T10:25:37.305Z,57.50
2018-03-25T10:28:05.151Z,55.20
2018-03-25T10:30:33.129Z,56.00
2018-03-25T10:33:01.043Z,54.50
2018-03-25T10:35:29.682Z,54.70
2018-03-25T10:37:57.641Z,54.70
2018-03-25T10:40:25.597Z,54.40
2018-03-25T10:42:53.502Z,52.10
2018-03-25T10:45:21.476Z,51.20
2018-03-25T10:47:49.545Z,50.70
2018-03-25T10:50:17.446Z,50.40
2018-03-25T10:52:45.408Z,49.00
2018-03-25T10:55:14.124Z,45.60
2018-03-25T10:57:42.002Z,45.60
2018-03-25T11:00:10.032Z,44.80
2018-03-25T11:02:38.056Z,44.60
2018-03-25T11:05:05.916Z,43.20
2018-03-25T11:07:33.802Z,42.90
2018-03-25T11:10:01.713Z,41.40
2018-03-25T11:12:29.654Z,42.00
2018-03-25T11:14:58.338Z,41.20
2018-03-25T11:17:26.407Z,41.20
2018-03-25T11:19:54.314Z,40.50
2018-03-25T11:22:22.292Z,39.40
2018-03-25T11:24:50.282Z,39.90
2018-03-25T11:27:18.235Z,39.60
2018-03-25T11:29:46.124Z,39.90
2018-03-25T11:32:14.138Z,38.70
2018-03-25T11:34:42.875Z,38.30
2018-03-25T11:37:11.245Z,38.20
2018-03-25T11:39:39.187Z,37.80
2018-03-25T11:42:07.883Z,35.90
2018-03-25T11:44:35.833Z,35.90
2018-03-25T11:47:04.667Z,36.30
2018-03-25T11:49:32.488Z,36.30
2018-03-25T11:52:00.351Z,34.80
2018-03-25T11:54:29.078Z,36.40
2018-03-25T11:56:57.005Z,36.40
2018-03-25T11:59:25.849Z,34.50
2018-03-25T12:01:53.863Z,34.50
2018-03-25T12:04:22.457Z,33.80
2018-03-25T12:06:51.187Z,34.00
2018-03-25T12:09:19.185Z,34.00
2018-03-25T12:11:47.128Z,34.40
2018-03-25T12:14:15.027Z,33.90
2018-03-25T12:16:42.999Z,33.40
2018-03-25T12:19:11.020Z,33.10
2018-03-25T12:21:39.004Z,32.80
2018-03-25T12:24:07.154Z,33.90
2018-03-25T12:26:35.166Z,33.00
2018-03-25T12:29:03.070Z,32.70
2018-03-25T12:31:31.790Z,33.20
2018-03-25T12:33:59.663Z,33.10
2018-03-25T12:36:27.508Z,33.30
2018-03-25T12:38:55.581Z,32.80
2018-03-25T12:41:23.575Z,32.80
2018-03-25T12:43:51.444Z,32.10
2018-03-25T12:46:19.502Z,31.90
2018-03-25T12:48:47.324Z,33.60
2018-03-25T12:51:15.271Z,32.30
2018-03-25T12:53:43.221Z,34.00
2018-03-25T12:56:11.134Z,33.10
2018-03-25T12:58:39.894Z,32.80
2018-03-25T13:01:07.804Z,32.80
2018-03-25T13:03:35.703Z,33.80
2018-03-25T13:06:03.594Z,34.00
2018-03-25T13:08:31.462Z,33.20
2018-03-25T13:10:59.404Z,32.80
2018-03-25T13:13:27.328Z,32.80
2018-03-25T13:15:56.106Z,32.70
2018-03-25T13:18:24.014Z,32.70
2018-03-25T13:20:51.873Z,32.80
2018-03-25T13:23:19.962Z,32.30
2018-03-25T13:25:47.936Z,31.60
2018-03-25T13:28:15.778Z,32.00
2018-03-25T13:30:43.764Z,31.80
2018-03-25T13:33:11.670Z,32.10
2018-03-25T13:35:39.625Z,30.90
2018-03-25T13:38:07.572Z,30.90
2018-03-25T13:40:35.454Z,30.00
2018-03-25T13:43:03.382Z,29.20
2018-03-25T13:45:32.099Z,27.30
2018-03-25T13:47:59.944Z,27.30
2018-03-25T13:50:27.869Z,26.40
2018-03-25T13:52:55.831Z,25.70
2018-03-25T13:55:23.783Z,25.30
2018-03-25T13:57:51.663Z,24.90
2018-03-25T14:00:19.561Z,24.30
2018-03-25T14:02:48.367Z,24.20
2018-03-25T14:05:16.217Z,24.50
2018-03-25T14:07:44.259Z,25.40
2018-03-25T14:10:12.193Z,25.80
2018-03-25T14:12:40.073Z,25.60
2018-03-25T14:15:08.830Z,26.10
2018-03-25T14:17:36.758Z,26.10
2018-03-25T14:20:04.657Z,25.60
2018-03-25T14:22:33.426Z,23.60
2018-03-25T14:25:01.449Z,23.50
2018-03-25T14:27:29.319Z,22.70
2018-03-25T14:29:57.322Z,22.20
2018-03-25T14:32:26.021Z,20.60
2018-03-25T14:34:53.925Z,20.50
2018-03-25T14:37:22.487Z,20.80
2018-03-25T14:39:50.614Z,20.80
2018-03-25T14:42:18.550Z,21.20
2018-03-25T14:44:46.580Z,21.00
2018-03-25T14:47:14.501Z,19.70
2018-03-25T14:49:42.372Z,19.80
2018-03-25T14:52:10.282Z,19.30
2018-03-25T14:54:38.210Z,19.30
2018-03-25T14:57:06.051Z,19.00
2018-03-25T14:59:34.050Z,19.10
2018-03-25T15:02:02.025Z,18.80
2018-03-25T15:04:29.820Z,19.40
2018-03-25T15:06:57.886Z,20.00
2018-03-25T15:09:25.885Z,20.00
2018-03-25T15:11:54.654Z,19.50
2018-03-25T15:14:22.736Z,19.50
2018-03-25T15:16:51.466Z,19.70
2018-03-25T15:19:19.358Z,19.60
2018-03-25T15:21:47.375Z,19.20
2018-03-25T15:24:15.933Z,19.60
2018-03-25T15:26:44.048Z,19.60
2018-03-25T15:29:12.058Z,20.00
2018-03-25T15:31:39.976Z,20.80
2018-03-25T15:34:07.864Z,21.20
2018-03-25T15:36:35.786Z,21.20
2018-03-25T15:39:03.737Z,21.00
2018-03-25T15:41:31.557Z,20.60
2018-03-25T15:43:59.462Z,20.50
2018-03-25T15:46:27.342Z,20.80
2018-03-25T15:48:55.312Z,21.00
2018-03-25T15:51:23.230Z,21.10
2018-03-25T15:53:51.244Z,22.30
2018-03-25T15:56:19.105Z,22.50
2018-03-25T15:58:47.166Z,22.40
2018-03-25T16:01:15.110Z,22.50
2018-03-25T16:03:43.117Z,22.60
2018-03-25T16:06:11.061Z,22.40
2018-03-25T16:08:38.932Z,22.30
2018-03-25T16:11:06.854Z,22.80
2018-03-25T16:13:35.625Z,22.50
2018-03-25T16:16:03.484Z,22.50
2018-03-25T16:18:31.434Z,23.50
2018-03-25T16:20:59.460Z,24.60
2018-03-25T16:23:28.058Z,27.70
2018-03-25T16:25:56.066Z,27.70
2018-03-25T16:28:24.016Z,29.10
2018-03-25T16:30:51.920Z,30.60
2018-03-25T16:33:19.807Z,32.10
2018-03-25T16:35:47.739Z,33.20
2018-03-25T16:38:15.646Z,33.90
2018-03-25T16:40:44.214Z,35.30
2018-03-25T16:43:12.169Z,35.30
2018-03-25T16:45:40.091Z,35.80
2018-03-25T16:48:07.953Z,37.60
2018-03-25T16:50:35.865Z,38.30
2018-03-25T16:53:03.781Z,37.80
2018-03-25T16:55:31.738Z,38.20
2018-03-25T16:58:01.505Z,38.80
2018-03-25T17:00:29.365Z,38.80
2018-03-25T17:02:57.347Z,39.20
2018-03-25T17:05:25.377Z,39.50
2018-03-25T17:07:53.260Z,40.20
2018-03-25T17:10:21.294Z,40.50
2018-03-25T17:12:50.021Z,41.00
2018-03-25T17:15:17.991Z,41.00
2018-03-25T17:17:46.750Z,43.70
2018-03-25T17:20:15.401Z,44.20
2018-03-25T17:22:43.644Z,44.20
2018-03-25T17:25:11.521Z,44.50
2018-03-25T17:27:39.524Z,44.00
2018-03-25T17:30:08.215Z,44.20
2018-03-25T17:32:36.944Z,44.70
2018-03-25T17:35:04.922Z,44.50
2018-03-25T17:37:33.548Z,44.90
2018-03-25T17:40:02.048Z,44.80
2018-03-25T17:42:29.970Z,45.10
2018-03-25T17:44:59.879Z,45.50
2018-03-25T17:47:28.562Z,46.00
2018-03-25T17:50:00.012Z,46.30
2018-03-25T17:52:29.017Z,46.50
2018-03-25T17:54:56.957Z,46.40
2018-03-25T17:57:24.943Z,46.90
2018-03-25T17:59:52.940Z,47.80
2018-03-25T18:02:20.829Z,47.70
2018-03-25T18:04:49.650Z,48.60
2018-03-25T18:07:17.555Z,48.10
2018-03-25T18:09:45.551Z,48.80
2018-03-25T18:12:13.554Z,48.50
2018-03-25T18:14:41.485Z,48.70
2018-03-25T18:17:33.458Z,48.70
2018-03-25T18:19:37.422Z,49.00
2018-03-25T18:22:05.427Z,49.20
2018-03-25T18:24:33.274Z,49.60
2018-03-25T18:27:02.152Z,48.90
2018-03-25T18:29:30.035Z,48.90
2018-03-25T18:31:58.756Z,49.30
2018-03-25T18:34:26.737Z,49.20
2018-03-25T18:36:54.644Z,49.20
2018-03-25T18:39:22.550Z,49.40
2018-03-25T18:41:50.617Z,49.50
2018-03-25T18:44:18.482Z,50.00
2018-03-25T18:46:46.408Z,50.50
2018-03-25T18:49:14.395Z,50.30
2018-03-25T18:51:43.125Z,50.20
2018-03-25T18:54:11.024Z,50.10
2018-03-25T18:56:38.919Z,50.20
2018-03-25T18:59:07.680Z,51.10
2018-03-25T19:01:35.771Z,50.60
2018-03-25T19:04:03.747Z,50.90
2018-03-25T19:06:33.705Z,51.30
2018-03-25T19:09:01.702Z,50.80
2018-03-25T19:11:29.789Z,50.90
2018-03-25T19:13:58.063Z,51.10
2018-03-25T19:16:27.039Z,51.50
2018-03-25T19:18:55.451Z,51.60
2018-03-25T19:21:24.266Z,52.00
2018-03-25T19:23:52.605Z,52.00
2018-03-25T19:26:20.881Z,52.00
2018-03-25T19:28:49.762Z,52.30
2018-03-25T19:31:18.998Z,52.30
2018-03-25T19:33:47.525Z,52.30
2018-03-25T19:36:15.445Z,52.50
2018-03-25T19:38:44.652Z,52.90
2018-03-25T19:41:13.345Z,53.00
2018-03-25T19:43:42.111Z,53.20
2018-03-25T19:46:10.874Z,53.30
2018-03-25T19:48:38.878Z,53.30
2018-03-25T19:51:07.498Z,53.70
2018-03-25T19:53:36.602Z,53.60
2018-03-25T19:56:04.739Z,53.60
2018-03-25T19:58:33.382Z,54.70
2018-03-25T20:01:01.234Z,54.80
2018-03-25T20:03:29.201Z,54.60
2018-03-25T20:05:57.079Z,54.20
2018-03-25T20:08:25.236Z,54.20
2018-03-25T20:10:53.283Z,54.30
2018-03-25T20:13:21.198Z,54.30
2018-03-25T20:15:49.981Z,54.30
2018-03-25T20:18:17.970Z,54.30
2018-03-25T20:20:45.823Z,54.60
2018-03-25T20:23:13.688Z,54.80
2018-03-25T20:25:41.603Z,55.30
2018-03-25T20:28:09.497Z,55.30
2018-03-25T20:30:37.886Z,55.10
2018-03-25T20:33:05.804Z,55.50
2018-03-25T20:35:33.860Z,55.20
2018-03-25T20:38:01.642Z,55.20
2018-03-25T20:40:30.702Z,55.40
2018-03-25T20:42:58.706Z,55.30
2018-03-25T20:45:27.414Z,55.50
2018-03-25T20:47:55.607Z,55.40
2018-03-25T20:50:23.700Z,55.60
2018-03-25T20:52:51.774Z,55.50
2018-03-25T20:55:19.820Z,55.80
2018-03-25T20:57:47.751Z,55.90
2018-03-25T21:00:16.376Z,56.00
2018-03-25T21:02:44.484Z,56.00
2018-03-25T21:05:12.451Z,56.10
2018-03-25T21:07:41.138Z,56.40
2018-03-25T21:10:10.010Z,56.30
2018-03-25T21:12:37.995Z,56.30
2018-03-25T21:15:06.481Z,56.20
2018-03-25T21:17:35.478Z,56.20
2018-03-25T21:20:03.403Z,56.10
2018-03-25T21:22:31.466Z,56.40
2018-03-25T21:24:59.385Z,56.90
2018-03-25T21:27:28.089Z,57.40
2018-03-25T21:29:56.773Z,57.60
2018-03-25T21:32:25.838Z,57.80
2018-03-25T21:34:54.844Z,57.60
2018-03-25T21:37:23.666Z,58.10
2018-03-25T21:39:51.618Z,58.10
2018-03-25T21:42:19.894Z,58.20
2018-03-25T21:44:48.834Z,58.70
2018-03-25T21:47:16.858Z,58.60
2018-03-25T21:49:45.723Z,58.80
2018-03-25T21:52:13.688Z,58.60
2018-03-25T21:54:42.249Z,58.80
2018-03-25T21:57:10.412Z,59.00
2018-03-25T21:59:38.315Z,58.90
2018-03-25T22:02:07.050Z,59.20
2018-03-25T22:04:35.043Z,59.10
2018-03-25T22:07:02.941Z,59.30
2018-03-25T22:09:30.821Z,59.40
2018-03-25T22:11:58.724Z,59.60
2018-03-25T22:14:26.837Z,60.10
2018-03-25T22:16:54.816Z,60.00
2018-03-25T22:19:22.737Z,60.20
2018-03-25T22:21:50.625Z,60.40
2018-03-25T22:24:18.704Z,60.20
2018-03-25T22:26:46.767Z,60.50
2018-03-25T22:29:14.640Z,61.10
2018-03-25T22:31:43.156Z,61.50
2018-03-25T22:34:11.209Z,61.50
2018-03-25T22:36:39.183Z,62.00
2018-03-25T22:39:07.356Z,62.60
2018-03-25T22:41:35.431Z,63.60
2018-03-25T22:44:03.601Z,63.90
2018-03-25T22:46:31.677Z,64.80
2018-03-25T22:48:59.848Z,65.10
2018-03-25T22:51:28.317Z,66.10
2018-03-25T22:53:56.293Z,65.70
2018-03-25T22:56:25.292Z,67.80
2018-03-25T22:58:53.355Z,67.00
2018-03-25T23:01:21.545Z,67.80
2018-03-25T23:03:49.698Z,68.00
2018-03-25T23:06:17.683Z,68.50
2018-03-25T23:08:45.652Z,69.10
2018-03-25T23:11:13.518Z,69.40
2018-03-25T23:13:41.486Z,70.40
2018-03-25T23:16:09.536Z,71.60
2018-03-25T23:18:37.632Z,72.20
2018-03-25T23:21:05.562Z,72.40
2018-03-25T23:23:33.670Z,73.30
2018-03-25T23:26:01.522Z,74.00
2018-03-25T23:28:29.350Z,74.40
2018-03-25T23:30:57.740Z,74.40
2018-03-25T23:33:25.751Z,74.30
2018-03-25T23:35:53.797Z,74.40
2018-03-25T23:38:21.813Z,74.00
2018-03-25T23:40:49.734Z,75.90
2018-03-25T23:43:18.125Z,75.40
2018-03-25T23:45:46.305Z,76.00
2018-03-25T23:48:14.190Z,76.20
2018-03-25T23:50:42.485Z,76.80
2018-03-25T23:53:11.251Z,78.50
2018-03-25T23:55:39.323Z,77.80
2018-03-25T23:58:07.216Z,78.70
